Rechercher aéroport 
image banner adimage banner adimage banner ad
image banner ad

PN14 - Misty Hill Farm

Situé à Ren Frew, United States

ICAO - PN14, IATA -

Données fournies par Airmate  

Information générale

Coordonnées: N40°47'22" W79°59'51"
Élévation : 1243 feet MSL.
Variation magnétique : -08° East
Voir autres Aéroports à Pennsylvania

Données opérationnelles

Special qualification required
Heure actuelle UTC:
Heure actuelle locale:
METAR: KBTP 150656Z AUTO 30003KT 10SM CLR 13/13 A2990 RMK AO2 SLP129 T01330128 $
Voir NOTAMs / SUP AIP / TFR affectant cet aéroport [VIEW]
Fréquences de communication: [VIEW]

Pistes:

Identifiant RWYQFULongueur (ft)Largeur (ft)SurfaceLDA (ft)
091800100GRASS
271800100GRASS

Coordonnées de l'aéroport

Adresse: Ren Frew United States

Vue satellite de PN14